sensor_id;sensor_type;location;lat;lon;timestamp;pressure;altitude;pressure_sealevel;temperature;humidity
16613;BME280;8419;52.358;9.752;2022-09-12T00:02:31;101141.00;;;24.68;43.18
16613;BME280;8419;52.358;9.752;2022-09-12T00:05:17;101134.00;;;24.66;43.22
16613;BME280;8419;52.358;9.752;2022-09-12T00:08:02;101146.00;;;24.62;43.27
16613;BME280;8419;52.358;9.752;2022-09-12T00:10:48;101148.00;;;24.23;43.98
16613;BME280;8419;52.358;9.752;2022-09-12T00:13:34;101142.00;;;24.00;44.64
16613;BME280;8419;52.358;9.752;2022-09-12T00:16:21;101138.00;;;24.55;43.41
16613;BME280;8419;52.358;9.752;2022-09-12T00:19:08;101138.00;;;24.36;43.96
16613;BME280;8419;52.358;9.752;2022-09-12T00:21:54;101142.00;;;23.89;44.82
16613;BME280;8419;52.358;9.752;2022-09-12T00:24:40;101134.00;;;24.63;43.15
16613;BME280;8419;52.358;9.752;2022-09-12T00:27:26;101133.00;;;24.67;42.96
16613;BME280;8419;52.358;9.752;2022-09-12T00:30:12;101137.00;;;24.11;43.90
16613;BME280;8419;52.358;9.752;2022-09-12T00:32:57;101141.00;;;23.79;44.81
16613;BME280;8419;52.358;9.752;2022-09-12T00:35:44;101138.00;;;24.04;44.10
16613;BME280;8419;52.358;9.752;2022-09-12T00:38:30;101141.00;;;23.70;44.97
16613;BME280;8419;52.358;9.752;2022-09-12T00:41:19;101132.00;;;23.68;44.95
16613;BME280;8419;52.358;9.752;2022-09-12T00:44:44;101133.00;;;23.70;44.85
16613;BME280;8419;52.358;9.752;2022-09-12T00:47:31;101137.00;;;23.68;44.89
16613;BME280;8419;52.358;9.752;2022-09-12T00:50:17;101125.00;;;23.61;44.96
16613;BME280;8419;52.358;9.752;2022-09-12T00:53:04;101123.00;;;23.53;45.11
16613;BME280;8419;52.358;9.752;2022-09-12T00:55:52;101121.00;;;24.28;43.42
16613;BME280;8419;52.358;9.752;2022-09-12T00:58:42;101123.00;;;24.14;43.70
16613;BME280;8419;52.358;9.752;2022-09-12T01:01:29;101125.00;;;24.15;43.64
16613;BME280;8419;52.358;9.752;2022-09-12T01:04:15;101126.00;;;24.20;43.46
16613;BME280;8419;52.358;9.752;2022-09-12T01:07:03;101113.00;;;24.25;43.28
16613;BME280;8419;52.358;9.752;2022-09-12T01:09:50;101113.00;;;24.24;43.27
16613;BME280;8419;52.358;9.752;2022-09-12T01:12:41;101112.00;;;24.21;43.24
16613;BME280;8419;52.358;9.752;2022-09-12T01:15:27;101118.00;;;24.14;43.28
16613;BME280;8419;52.358;9.752;2022-09-12T01:18:17;101122.00;;;24.14;43.22
16613;BME280;8419;52.358;9.752;2022-09-12T01:21:11;101105.00;;;24.11;43.21
16613;BME280;8419;52.358;9.752;2022-09-12T01:24:29;101109.00;;;24.12;43.14
16613;BME280;8419;52.358;9.752;2022-09-12T01:27:27;101110.00;;;24.20;42.93
16613;BME280;8419;52.358;9.752;2022-09-12T01:33:47;101112.00;;;24.08;43.05
16613;BME280;8419;52.358;9.752;2022-09-12T01:36:44;101109.00;;;24.04;43.03
16613;BME280;8419;52.358;9.752;2022-09-12T01:39:41;101103.00;;;24.02;43.06
16613;BME280;8419;52.358;9.752;2022-09-12T01:42:36;101106.00;;;23.58;43.87
16613;BME280;8419;52.358;9.752;2022-09-12T01:45:27;101095.00;;;23.68;43.83
16613;BME280;8419;52.358;9.752;2022-09-12T01:48:19;101089.00;;;23.88;43.32
16613;BME280;8419;52.358;9.752;2022-09-12T01:51:08;101089.00;;;23.91;43.22
16613;BME280;8419;52.358;9.752;2022-09-12T01:53:57;101087.00;;;23.90;43.27
16613;BME280;8419;52.358;9.752;2022-09-12T01:56:45;101098.00;;;23.93;43.23
16613;BME280;8419;52.358;9.752;2022-09-12T01:59:36;101091.00;;;23.93;43.22
16613;BME280;8419;52.358;9.752;2022-09-12T02:02:27;101085.00;;;23.88;43.31
16613;BME280;8419;52.358;9.752;2022-09-12T02:05:21;101089.00;;;23.88;43.36
16613;BME280;8419;52.358;9.752;2022-09-12T02:08:13;101086.00;;;23.80;43.53
16613;BME280;8419;52.358;9.752;2022-09-12T02:11:05;101083.00;;;23.79;43.52
16613;BME280;8419;52.358;9.752;2022-09-12T02:13:55;101072.00;;;23.10;45.05
16613;BME280;8419;52.358;9.752;2022-09-12T02:16:46;101080.00;;;23.00;45.29
16613;BME280;8419;52.358;9.752;2022-09-12T02:19:38;101074.00;;;23.02;45.23
16613;BME280;8419;52.358;9.752;2022-09-12T02:22:27;101077.00;;;22.98;45.27
16613;BME280;8419;52.358;9.752;2022-09-12T02:25:17;101079.00;;;23.01;45.13
16613;BME280;8419;52.358;9.752;2022-09-12T02:28:07;101072.00;;;23.05;45.02
16613;BME280;8419;52.358;9.752;2022-09-12T02:31:00;101075.00;;;23.47;44.18
16613;BME280;8419;52.358;9.752;2022-09-12T02:33:54;101077.00;;;23.82;43.21
16613;BME280;8419;52.358;9.752;2022-09-12T02:36:51;101070.00;;;23.84;43.13
16613;BME280;8419;52.358;9.752;2022-09-12T02:39:40;101067.00;;;23.90;43.00
16613;BME280;8419;52.358;9.752;2022-09-12T02:42:25;101069.00;;;23.90;42.96
16613;BME280;8419;52.358;9.752;2022-09-12T02:45:12;101066.00;;;23.93;42.89
16613;BME280;8419;52.358;9.752;2022-09-12T02:47:59;101062.00;;;23.83;43.07
16613;BME280;8419;52.358;9.752;2022-09-12T02:50:47;101065.00;;;23.80;43.12
16613;BME280;8419;52.358;9.752;2022-09-12T02:53:33;101065.00;;;23.68;43.32
16613;BME280;8419;52.358;9.752;2022-09-12T02:56:22;101056.00;;;23.61;43.49
16613;BME280;8419;52.358;9.752;2022-09-12T02:59:11;101061.00;;;23.66;43.39
16613;BME280;8419;52.358;9.752;2022-09-12T03:02:11;101054.00;;;23.68;43.26
16613;BME280;8419;52.358;9.752;2022-09-12T03:05:12;101062.00;;;23.65;43.30
16613;BME280;8419;52.358;9.752;2022-09-12T03:08:14;101055.00;;;23.64;43.23
16613;BME280;8419;52.358;9.752;2022-09-12T03:11:14;101053.00;;;23.56;43.34
16613;BME280;8419;52.358;9.752;2022-09-12T03:14:16;101057.00;;;23.52;43.36
16613;BME280;8419;52.358;9.752;2022-09-12T03:17:12;101055.00;;;23.51;43.28
16613;BME280;8419;52.358;9.752;2022-09-12T03:20:02;101051.00;;;23.55;43.12
16613;BME280;8419;52.358;9.752;2022-09-12T03:22:55;101055.00;;;23.39;43.40
16613;BME280;8419;52.358;9.752;2022-09-12T03:25:44;101051.00;;;23.46;43.24
16613;BME280;8419;52.358;9.752;2022-09-12T03:28:34;101047.00;;;23.43;43.25
16613;BME280;8419;52.358;9.752;2022-09-12T03:31:20;101044.00;;;23.40;43.25
16613;BME280;8419;52.358;9.752;2022-09-12T03:34:06;101056.00;;;23.39;43.25
16613;BME280;8419;52.358;9.752;2022-09-12T03:36:56;101061.00;;;23.32;43.42
16613;BME280;8419;52.358;9.752;2022-09-12T03:39:43;101053.00;;;23.31;43.41
16613;BME280;8419;52.358;9.752;2022-09-12T03:42:28;101051.00;;;23.36;43.31
16613;BME280;8419;52.358;9.752;2022-09-12T03:45:14;101060.00;;;23.40;43.19
16613;BME280;8419;52.358;9.752;2022-09-12T03:48:01;101056.00;;;23.39;43.21
16613;BME280;8419;52.358;9.752;2022-09-12T03:50:46;101055.00;;;23.38;43.23
16613;BME280;8419;52.358;9.752;2022-09-12T03:53:33;101060.00;;;23.33;43.35
16613;BME280;8419;52.358;9.752;2022-09-12T03:56:18;101059.00;;;23.34;43.35
16613;BME280;8419;52.358;9.752;2022-09-12T03:59:05;101056.00;;;23.29;43.43
16613;BME280;8419;52.358;9.752;2022-09-12T04:01:51;101045.00;;;23.23;43.61
16613;BME280;8419;52.358;9.752;2022-09-12T04:04:37;101051.00;;;23.28;43.50
16613;BME280;8419;52.358;9.752;2022-09-12T04:07:24;101051.00;;;23.26;43.52
16613;BME280;8419;52.358;9.752;2022-09-12T04:10:10;101052.00;;;23.14;43.76
16613;BME280;8419;52.358;9.752;2022-09-12T04:12:56;101054.00;;;23.28;43.39
16613;BME280;8419;52.358;9.752;2022-09-12T04:15:41;101054.00;;;23.28;43.33
16613;BME280;8419;52.358;9.752;2022-09-12T04:18:27;101049.00;;;23.27;43.28
16613;BME280;8419;52.358;9.752;2022-09-12T04:21:14;101064.00;;;23.24;43.27
16613;BME280;8419;52.358;9.752;2022-09-12T04:24:01;101053.00;;;23.21;43.30
16613;BME280;8419;52.358;9.752;2022-09-12T04:26:46;101049.00;;;23.25;43.16
16613;BME280;8419;52.358;9.752;2022-09-12T04:29:32;101051.00;;;23.18;43.24
16613;BME280;8419;52.358;9.752;2022-09-12T04:32:17;101058.00;;;23.16;43.26
16613;BME280;8419;52.358;9.752;2022-09-12T04:35:04;101060.00;;;23.20;43.17
16613;BME280;8419;52.358;9.752;2022-09-12T04:37:50;101057.00;;;23.17;43.19
16613;BME280;8419;52.358;9.752;2022-09-12T04:40:37;101062.00;;;23.12;43.25
16613;BME280;8419;52.358;9.752;2022-09-12T04:43:22;101056.00;;;23.15;43.21
16613;BME280;8419;52.358;9.752;2022-09-12T04:46:10;101060.00;;;23.14;43.17
16613;BME280;8419;52.358;9.752;2022-09-12T04:48:56;101057.00;;;23.14;43.21
16613;BME280;8419;52.358;9.752;2022-09-12T04:51:42;101057.00;;;23.17;43.19
16613;BME280;8419;52.358;9.752;2022-09-12T04:54:28;101054.00;;;22.73;43.93
16613;BME280;8419;52.358;9.752;2022-09-12T04:57:14;101060.00;;;23.22;43.16
16613;BME280;8419;52.358;9.752;2022-09-12T04:59:59;101056.00;;;23.24;43.14
16613;BME280;8419;52.358;9.752;2022-09-12T05:02:45;101067.00;;;23.23;43.16
16613;BME280;8419;52.358;9.752;2022-09-12T05:05:31;101061.00;;;23.21;43.20
16613;BME280;8419;52.358;9.752;2022-09-12T05:08:17;101062.00;;;23.23;43.14
16613;BME280;8419;52.358;9.752;2022-09-12T05:11:03;101072.00;;;23.23;43.10
16613;BME280;8419;52.358;9.752;2022-09-12T05:13:50;101068.00;;;23.20;43.14
16613;BME280;8419;52.358;9.752;2022-09-12T05:16:35;101073.00;;;23.23;43.13
16613;BME280;8419;52.358;9.752;2022-09-12T05:19:22;101073.00;;;23.26;43.08
16613;BME280;8419;52.358;9.752;2022-09-12T05:22:08;101075.00;;;23.31;43.03
16613;BME280;8419;52.358;9.752;2022-09-12T05:24:53;101079.00;;;23.30;43.07
16613;BME280;8419;52.358;9.752;2022-09-12T05:27:39;101079.00;;;23.40;42.98
16613;BME280;8419;52.358;9.752;2022-09-12T05:30:24;101080.00;;;23.44;42.96
16613;BME280;8419;52.358;9.752;2022-09-12T05:33:11;101086.00;;;23.47;42.95
16613;BME280;8419;52.358;9.752;2022-09-12T05:35:57;101082.00;;;23.51;42.89
16613;BME280;8419;52.358;9.752;2022-09-12T05:38:43;101080.00;;;23.53;42.96
16613;BME280;8419;52.358;9.752;2022-09-12T05:41:30;101076.00;;;23.54;42.96
16613;BME280;8419;52.358;9.752;2022-09-12T05:44:17;101085.00;;;23.60;42.94
16613;BME280;8419;52.358;9.752;2022-09-12T05:47:03;101078.00;;;23.65;42.86
16613;BME280;8419;52.358;9.752;2022-09-12T05:49:48;101075.00;;;23.60;43.00
16613;BME280;8419;52.358;9.752;2022-09-12T05:52:36;101085.00;;;23.63;42.99
16613;BME280;8419;52.358;9.752;2022-09-12T05:55:21;101083.00;;;23.58;43.07
16613;BME280;8419;52.358;9.752;2022-09-12T05:58:07;101080.00;;;23.61;43.02
16613;BME280;8419;52.358;9.752;2022-09-12T06:00:53;101086.00;;;23.57;43.12
16613;BME280;8419;52.358;9.752;2022-09-12T06:03:41;101081.00;;;23.55;43.15
16613;BME280;8419;52.358;9.752;2022-09-12T06:06:29;101084.00;;;23.57;43.15
16613;BME280;8419;52.358;9.752;2022-09-12T06:09:16;101082.00;;;23.61;43.05
16613;BME280;8419;52.358;9.752;2022-09-12T06:12:03;101078.00;;;23.55;43.17
16613;BME280;8419;52.358;9.752;2022-09-12T06:14:48;101078.00;;;23.55;43.16
16613;BME280;8419;52.358;9.752;2022-09-12T06:17:35;101085.00;;;23.58;43.14
16613;BME280;8419;52.358;9.752;2022-09-12T06:20:20;101084.00;;;23.59;43.16
16613;BME280;8419;52.358;9.752;2022-09-12T06:23:06;101084.00;;;23.62;43.12
16613;BME280;8419;52.358;9.752;2022-09-12T06:25:51;101079.00;;;23.65;43.15
16613;BME280;8419;52.358;9.752;2022-09-12T06:28:39;101087.00;;;23.61;43.33
16613;BME280;8419;52.358;9.752;2022-09-12T06:31:27;101075.00;;;23.79;43.07
16613;BME280;8419;52.358;9.752;2022-09-12T06:34:14;101065.00;;;23.83;43.01
16613;BME280;8419;52.358;9.752;2022-09-12T06:36:59;101069.00;;;23.90;43.03
16613;BME280;8419;52.358;9.752;2022-09-12T06:39:48;101078.00;;;23.99;42.93
16613;BME280;8419;52.358;9.752;2022-09-12T06:42:33;101072.00;;;24.06;42.93
16613;BME280;8419;52.358;9.752;2022-09-12T06:45:19;101067.00;;;24.13;42.87
16613;BME280;8419;52.358;9.752;2022-09-12T06:48:05;101065.00;;;24.25;42.75
16613;BME280;8419;52.358;9.752;2022-09-12T06:50:58;101055.00;;;24.25;42.82
16613;BME280;8419;52.358;9.752;2022-09-12T06:53:45;101061.00;;;24.32;42.85
16613;BME280;8419;52.358;9.752;2022-09-12T06:56:32;101060.00;;;23.70;44.21
16613;BME280;8419;52.358;9.752;2022-09-12T06:59:20;101064.00;;;23.62;44.64
16613;BME280;8419;52.358;9.752;2022-09-12T07:02:08;101060.00;;;23.89;44.13
16613;BME280;8419;52.358;9.752;2022-09-12T07:04:53;101060.00;;;23.78;44.60
16613;BME280;8419;52.358;9.752;2022-09-12T07:07:39;101060.00;;;24.64;42.83
16613;BME280;8419;52.358;9.752;2022-09-12T07:10:27;101061.00;;;24.74;42.73
16613;BME280;8419;52.358;9.752;2022-09-12T07:13:12;101062.00;;;24.81;42.71
16613;BME280;8419;52.358;9.752;2022-09-12T07:16:01;101067.00;;;24.92;42.55
16613;BME280;8419;52.358;9.752;2022-09-12T07:18:50;101061.00;;;25.02;42.50
16613;BME280;8419;52.358;9.752;2022-09-12T07:21:36;101064.00;;;25.02;42.62
16613;BME280;8419;52.358;9.752;2022-09-12T07:24:24;101061.00;;;25.08;42.55
16613;BME280;8419;52.358;9.752;2022-09-12T07:27:10;101065.00;;;25.12;42.56
16613;BME280;8419;52.358;9.752;2022-09-12T07:29:55;101069.00;;;25.02;42.91
16613;BME280;8419;52.358;9.752;2022-09-12T07:32:42;101060.00;;;25.15;42.77
16613;BME280;8419;52.358;9.752;2022-09-12T07:35:27;101069.00;;;25.27;42.62
16613;BME280;8419;52.358;9.752;2022-09-12T07:38:17;101062.00;;;25.43;42.42
16613;BME280;8419;52.358;9.752;2022-09-12T07:41:10;101071.00;;;25.49;42.43
16613;BME280;8419;52.358;9.752;2022-09-12T07:43:57;101064.00;;;25.65;42.28
16613;BME280;8419;52.358;9.752;2022-09-12T07:46:43;101065.00;;;25.86;41.92
16613;BME280;8419;52.358;9.752;2022-09-12T07:49:28;101067.00;;;25.91;41.94
16613;BME280;8419;52.358;9.752;2022-09-12T07:52:14;101075.00;;;26.02;41.85
16613;BME280;8419;52.358;9.752;2022-09-12T07:55:00;101071.00;;;26.11;41.78
16613;BME280;8419;52.358;9.752;2022-09-12T07:57:49;101076.00;;;26.18;41.77
16613;BME280;8419;52.358;9.752;2022-09-12T08:00:35;101070.00;;;26.34;41.54
16613;BME280;8419;52.358;9.752;2022-09-12T08:03:22;101072.00;;;26.43;41.48
16613;BME280;8419;52.358;9.752;2022-09-12T08:06:09;101077.00;;;26.32;41.86
16613;BME280;8419;52.358;9.752;2022-09-12T08:08:56;101077.00;;;26.39;41.89
16613;BME280;8419;52.358;9.752;2022-09-12T08:11:42;101074.00;;;26.50;41.77
16613;BME280;8419;52.358;9.752;2022-09-12T08:14:27;101069.00;;;26.70;41.41
16613;BME280;8419;52.358;9.752;2022-09-12T08:17:13;101078.00;;;26.83;41.28
16613;BME280;8419;52.358;9.752;2022-09-12T08:20:01;101075.00;;;26.89;41.28
16613;BME280;8419;52.358;9.752;2022-09-12T08:22:48;101068.00;;;27.02;41.11
16613;BME280;8419;52.358;9.752;2022-09-12T08:25:37;101076.00;;;27.16;40.91
16613;BME280;8419;52.358;9.752;2022-09-12T08:28:25;101076.00;;;27.20;40.92
16613;BME280;8419;52.358;9.752;2022-09-12T08:31:13;101068.00;;;27.28;40.83
16613;BME280;8419;52.358;9.752;2022-09-12T08:33:59;101072.00;;;27.46;40.58
16613;BME280;8419;52.358;9.752;2022-09-12T08:36:51;101065.00;;;27.68;40.21
16613;BME280;8419;52.358;9.752;2022-09-12T08:39:39;101080.00;;;27.93;39.95
16613;BME280;8419;52.358;9.752;2022-09-12T08:42:42;101065.00;;;27.99;39.90
16613;BME280;8419;52.358;9.752;2022-09-12T08:45:35;101071.00;;;28.27;39.57
16613;BME280;8419;52.358;9.752;2022-09-12T08:48:22;101064.00;;;28.42;39.29
16613;BME280;8419;52.358;9.752;2022-09-12T08:51:13;101073.00;;;28.58;39.05
16613;BME280;8419;52.358;9.752;2022-09-12T08:54:04;101070.00;;;28.67;38.90
16613;BME280;8419;52.358;9.752;2022-09-12T08:57:00;101068.00;;;28.84;38.71
16613;BME280;8419;52.358;9.752;2022-09-12T08:59:48;101066.00;;;29.04;38.49
16613;BME280;8419;52.358;9.752;2022-09-12T09:02:58;101069.00;;;29.27;38.16
16613;BME280;8419;52.358;9.752;2022-09-12T09:05:50;101072.00;;;29.52;37.91
16613;BME280;8419;52.358;9.752;2022-09-12T09:08:52;101072.00;;;29.76;37.53
16613;BME280;8419;52.358;9.752;2022-09-12T09:11:52;101070.00;;;30.13;37.13
16613;BME280;8419;52.358;9.752;2022-09-12T09:14:53;101068.00;;;30.21;36.92
16613;BME280;8419;52.358;9.752;2022-09-12T09:17:43;101055.00;;;30.33;36.78
16613;BME280;8419;52.358;9.752;2022-09-12T09:20:34;101051.00;;;30.54;36.55
16613;BME280;8419;52.358;9.752;2022-09-12T09:23:27;101042.00;;;30.73;36.11
16613;BME280;8419;52.358;9.752;2022-09-12T09:26:17;101050.00;;;30.81;35.92
16613;BME280;8419;52.358;9.752;2022-09-12T09:29:15;101052.00;;;30.97;35.63
16613;BME280;8419;52.358;9.752;2022-09-12T09:32:08;101041.00;;;31.22;35.29
16613;BME280;8419;52.358;9.752;2022-09-12T09:34:57;101041.00;;;31.33;34.94
16613;BME280;8419;52.358;9.752;2022-09-12T09:37:54;101043.00;;;31.38;34.79
16613;BME280;8419;52.358;9.752;2022-09-12T09:40:50;101037.00;;;31.44;34.68
16613;BME280;8419;52.358;9.752;2022-09-12T09:43:38;101033.00;;;31.49;34.51
16613;BME280;8419;52.358;9.752;2022-09-12T09:46:24;101032.00;;;31.24;34.51
16613;BME280;8419;52.358;9.752;2022-09-12T09:49:13;101037.00;;;31.30;34.45
16613;BME280;8419;52.358;9.752;2022-09-12T09:52:02;101030.00;;;31.46;34.03
16613;BME280;8419;52.358;9.752;2022-09-12T09:54:52;101028.00;;;31.48;33.82
16613;BME280;8419;52.358;9.752;2022-09-12T09:57:43;101017.00;;;31.58;33.52
16613;BME280;8419;52.358;9.752;2022-09-12T10:00:31;101024.00;;;31.65;33.43
16613;BME280;8419;52.358;9.752;2022-09-12T10:03:28;101029.00;;;31.80;33.20
16613;BME280;8419;52.358;9.752;2022-09-12T10:06:23;101019.00;;;31.96;32.96
16613;BME280;8419;52.358;9.752;2022-09-12T10:09:22;101019.00;;;32.00;nan
16613;BME280;8419;52.358;9.752;2022-09-12T10:12:25;101014.00;;;31.22;34.12
16613;BME280;8419;52.358;9.752;2022-09-12T10:15:18;101019.00;;;31.29;33.89
16613;BME280;8419;52.358;9.752;2022-09-12T10:18:04;101007.00;;;31.36;33.72
16613;BME280;8419;52.358;9.752;2022-09-12T10:20:51;101011.00;;;31.46;33.58
16613;BME280;8419;52.358;9.752;2022-09-12T10:23:37;101017.00;;;31.64;33.32
16613;BME280;8419;52.358;9.752;2022-09-12T10:26:26;101012.00;;;31.81;32.88
16613;BME280;8419;52.358;9.752;2022-09-12T10:29:17;101005.00;;;32.69;31.34
16613;BME280;8419;52.358;9.752;2022-09-12T10:32:07;101005.00;;;32.91;31.05
16613;BME280;8419;52.358;9.752;2022-09-12T10:34:56;101011.00;;;33.04;30.75
16613;BME280;8419;52.358;9.752;2022-09-12T10:37:51;101006.00;;;33.24;30.42
16613;BME280;8419;52.358;9.752;2022-09-12T10:40:40;101002.00;;;33.40;30.12
16613;BME280;8419;52.358;9.752;2022-09-12T10:43:29;101002.00;;;33.34;29.94
16613;BME280;8419;52.358;9.752;2022-09-12T10:46:27;100999.00;;;33.40;29.75
16613;BME280;8419;52.358;9.752;2022-09-12T10:49:21;101000.00;;;33.49;29.60
16613;BME280;8419;52.358;9.752;2022-09-12T10:52:20;100993.00;;;33.33;29.73
16613;BME280;8419;52.358;9.752;2022-09-12T10:55:12;100983.00;;;33.58;29.22
16613;BME280;8419;52.358;9.752;2022-09-12T10:58:17;100986.00;;;33.60;28.97
16613;BME280;8419;52.358;9.752;2022-09-12T11:01:15;100986.00;;;33.66;28.64
16613;BME280;8419;52.358;9.752;2022-09-12T11:04:25;100989.00;;;33.68;28.14
16613;BME280;8419;52.358;9.752;2022-09-12T11:07:30;100981.00;;;33.70;28.06
16613;BME280;8419;52.358;9.752;2022-09-12T11:10:36;100979.00;;;33.67;27.59
16613;BME280;8419;52.358;9.752;2022-09-12T11:13:37;100974.00;;;33.75;27.35
16613;BME280;8419;52.358;9.752;2022-09-12T11:16:33;100971.00;;;33.93;27.11
16613;BME280;8419;52.358;9.752;2022-09-12T11:23:23;100981.00;;;34.10;26.47
16613;BME280;8419;52.358;9.752;2022-09-12T11:26:25;100973.00;;;33.95;26.57
16613;BME280;8419;52.358;9.752;2022-09-12T11:29:24;100970.00;;;33.87;26.36
16613;BME280;8419;52.358;9.752;2022-09-12T11:32:37;100968.00;;;33.81;26.12
16613;BME280;8419;52.358;9.752;2022-09-12T11:35:28;100961.00;;;33.92;26.16
16613;BME280;8419;52.358;9.752;2022-09-12T11:38:26;100960.00;;;33.94;26.07
16613;BME280;8419;52.358;9.752;2022-09-12T11:41:22;100957.00;;;33.99;25.60
16613;BME280;8419;52.358;9.752;2022-09-12T11:44:16;100948.00;;;34.03;25.31
16613;BME280;8419;52.358;9.752;2022-09-12T11:47:07;100948.00;;;34.00;25.48
16613;BME280;8419;52.358;9.752;2022-09-12T11:49:55;100954.00;;;34.08;25.40
16613;BME280;8419;52.358;9.752;2022-09-12T11:52:42;100942.00;;;34.21;25.41
16613;BME280;8419;52.358;9.752;2022-09-12T11:55:34;100944.00;;;34.18;25.50
16613;BME280;8419;52.358;9.752;2022-09-12T11:58:26;100945.00;;;34.21;25.27
16613;BME280;8419;52.358;9.752;2022-09-12T12:01:16;100938.00;;;34.17;25.41
16613;BME280;8419;52.358;9.752;2022-09-12T12:04:10;100942.00;;;34.01;25.49
16613;BME280;8419;52.358;9.752;2022-09-12T12:07:02;100941.00;;;34.16;25.35
16613;BME280;8419;52.358;9.752;2022-09-12T12:09:50;100936.00;;;34.29;25.23
16613;BME280;8419;52.358;9.752;2022-09-12T12:12:37;100944.00;;;34.54;25.08
16613;BME280;8419;52.358;9.752;2022-09-12T12:15:23;100939.00;;;34.92;24.82
16613;BME280;8419;52.358;9.752;2022-09-12T12:18:15;100942.00;;;35.19;24.58
16613;BME280;8419;52.358;9.752;2022-09-12T12:21:21;100938.00;;;35.17;24.66
16613;BME280;8419;52.358;9.752;2022-09-12T12:24:16;100935.00;;;35.15;24.81
16613;BME280;8419;52.358;9.752;2022-09-12T12:27:24;100934.00;;;35.01;24.97
16613;BME280;8419;52.358;9.752;2022-09-12T12:31:04;100931.00;;;35.32;24.74
16613;BME280;8419;52.358;9.752;2022-09-12T12:34:02;100929.00;;;35.78;24.42
16613;BME280;8419;52.358;9.752;2022-09-12T12:36:47;100924.00;;;35.67;24.29
16613;BME280;8419;52.358;9.752;2022-09-12T12:39:55;100927.00;;;35.75;24.22
16613;BME280;8419;52.358;9.752;2022-09-12T12:43:26;100921.00;;;35.86;24.23
16613;BME280;8419;52.358;9.752;2022-09-12T12:46:17;100914.00;;;35.92;24.29
16613;BME280;8419;52.358;9.752;2022-09-12T12:49:18;100909.00;;;35.97;24.16
16613;BME280;8419;52.358;9.752;2022-09-12T12:52:16;100906.00;;;35.97;24.28
16613;BME280;8419;52.358;9.752;2022-09-12T12:55:12;100907.00;;;36.01;24.31
16613;BME280;8419;52.358;9.752;2022-09-12T12:58:00;100907.00;;;36.04;24.31
16613;BME280;8419;52.358;9.752;2022-09-12T13:00:46;100906.00;;;35.94;24.47
16613;BME280;8419;52.358;9.752;2022-09-12T13:03:52;100895.00;;;35.85;24.58
16613;BME280;8419;52.358;9.752;2022-09-12T13:06:41;100889.00;;;35.78;24.67
16613;BME280;8419;52.358;9.752;2022-09-12T13:09:35;100884.00;;;35.97;24.65
16613;BME280;8419;52.358;9.752;2022-09-12T13:12:24;100880.00;;;36.07;24.53
16613;BME280;8419;52.358;9.752;2022-09-12T13:15:50;100884.00;;;36.30;24.40
16613;BME280;8419;52.358;9.752;2022-09-12T13:18:47;100873.00;;;36.39;24.41
16613;BME280;8419;52.358;9.752;2022-09-12T13:21:36;100877.00;;;36.26;24.37
16613;BME280;8419;52.358;9.752;2022-09-12T13:24:23;100879.00;;;36.37;24.29
16613;BME280;8419;52.358;9.752;2022-09-12T13:27:19;100871.00;;;36.33;24.25
16613;BME280;8419;52.358;9.752;2022-09-12T13:30:08;100867.00;;;36.40;24.15
16613;BME280;8419;52.358;9.752;2022-09-12T13:33:06;100861.00;;;36.30;24.27
16613;BME280;8419;52.358;9.752;2022-09-12T13:39:47;100862.00;;;35.70;24.47
16613;BME280;8419;52.358;9.752;2022-09-12T13:42:39;100857.00;;;35.52;24.41
16613;BME280;8419;52.358;9.752;2022-09-12T13:45:25;100846.00;;;35.57;24.29
16613;BME280;8419;52.358;9.752;2022-09-12T13:48:17;100836.00;;;35.78;23.98
16613;BME280;8419;52.358;9.752;2022-09-12T13:51:22;100829.00;;;36.27;23.52
16613;BME280;8419;52.358;9.752;2022-09-12T13:54:16;100830.00;;;36.44;23.25
16613;BME280;8419;52.358;9.752;2022-09-12T13:57:18;100830.00;;;36.71;23.05
16613;BME280;8419;52.358;9.752;2022-09-12T14:00:18;100816.00;;;36.73;23.03
16613;BME280;8419;52.358;9.752;2022-09-12T14:03:29;100815.00;;;36.92;22.71
16613;BME280;8419;52.358;9.752;2022-09-12T14:06:43;100815.00;;;36.72;22.96
16613;BME280;8419;52.358;9.752;2022-09-12T14:09:36;100813.00;;;36.74;22.81
16613;BME280;8419;52.358;9.752;2022-09-12T14:12:26;100811.00;;;36.91;22.50
16613;BME280;8419;52.358;9.752;2022-09-12T14:15:19;100806.00;;;36.73;22.66
16613;BME280;8419;52.358;9.752;2022-09-12T14:18:25;100794.00;;;36.48;22.97
16613;BME280;8419;52.358;9.752;2022-09-12T14:21:25;100788.00;;;36.16;23.19
16613;BME280;8419;52.358;9.752;2022-09-12T14:24:14;100786.00;;;35.91;23.30
16613;BME280;8419;52.358;9.752;2022-09-12T14:27:10;100796.00;;;35.90;23.30
16613;BME280;8419;52.358;9.752;2022-09-12T14:30:00;100789.00;;;35.79;23.47
16613;BME280;8419;52.358;9.752;2022-09-12T14:33:14;100790.00;;;35.67;23.52
16613;BME280;8419;52.358;9.752;2022-09-12T14:36:11;100793.00;;;35.58;23.58
16613;BME280;8419;52.358;9.752;2022-09-12T14:39:02;100786.00;;;35.30;23.86
16613;BME280;8419;52.358;9.752;2022-09-12T14:41:49;100785.00;;;35.07;24.00
16613;BME280;8419;52.358;9.752;2022-09-12T14:44:40;100780.00;;;34.91;24.20
16613;BME280;8419;52.358;9.752;2022-09-12T14:47:38;100775.00;;;34.95;24.24
16613;BME280;8419;52.358;9.752;2022-09-12T14:50:34;100761.00;;;35.33;23.85
16613;BME280;8419;52.358;9.752;2022-09-12T14:53:29;100773.00;;;35.37;23.82
16613;BME280;8419;52.358;9.752;2022-09-12T14:56:15;100761.00;;;35.49;23.60
16613;BME280;8419;52.358;9.752;2022-09-12T14:59:26;100770.00;;;35.40;23.58
16613;BME280;8419;52.358;9.752;2022-09-12T15:02:28;100763.00;;;35.19;23.73
16613;BME280;8419;52.358;9.752;2022-09-12T15:05:22;100763.00;;;35.24;23.70
16613;BME280;8419;52.358;9.752;2022-09-12T15:08:16;100756.00;;;35.26;23.61
16613;BME280;8419;52.358;9.752;2022-09-12T15:11:05;100762.00;;;35.13;23.68
16613;BME280;8419;52.358;9.752;2022-09-12T15:13:50;100751.00;;;35.00;23.74
16613;BME280;8419;52.358;9.752;2022-09-12T15:16:36;100757.00;;;34.90;23.79
16613;BME280;8419;52.358;9.752;2022-09-12T15:19:21;100753.00;;;34.70;24.01